Time;durP1;ratioP1;P1;durP2;ratioP2;P2;SDS_P1;SDS_P2;PMS_P1;PMS_P2;Temp;Humidity;BMP_temperature;BMP_pressure;BME280_temperature;BME280_humidity;BME280_pressure;Samples;Min_cycle;Max_cycle;Signal;HPM_P1;HPM_P2
2022/03/21 00:00:25;;;;;;;;;;;;;;;;;;5036290;28;19916;-70
2022/03/21 00:02:51;;;;;;;;;;;;;;;;;;5036769;28;19913;-72
2022/03/21 00:05:17;;;;;;;;;;;;;;;;;;5035205;28;19955;-71
2022/03/21 00:07:42;;;;;;;;;;;;;;;;;;5055339;28;19944;-72
2022/03/21 00:10:07;;;;;;;;;;;;;;;;;;5055753;28;19955;-71
2022/03/21 00:12:33;;;;;;;;;;;;;;;;;;5055520;28;19916;-71
2022/03/21 00:14:58;;;;;;;;;;;;;;;;;;5037662;28;19954;-72
2022/03/21 00:17:24;;;;;;;;;;;;;;;;;;5037476;28;19966;-72
2022/03/21 00:19:50;;;;;;;;;;;;;;;;;;5054816;28;19916;-72
2022/03/21 00:22:15;;;;;;;;;;;;;;;;;;5055036;28;19909;-72
2022/03/21 00:24:41;;;;;;;;;;;;;;;;;;5021314;28;19909;-71
2022/03/21 00:27:12;;;;;;;;;;;;;;;;;;5037336;28;19909;-72
2022/03/21 00:29:41;;;;;;;;;;;;;;;;;;5037554;28;19919;-72
2022/03/21 00:32:06;;;;;;;;;;;;;;;;;;5036996;28;20003;-72
2022/03/21 00:34:31;;;;;;;;;;;;;;;;;;5054838;28;19912;-72
2022/03/21 00:36:57;;;;;;;;;;;;;;;;;;5054509;28;19962;-71
2022/03/21 00:39:22;;;;;;;;;;;;;;;;;;5055146;28;19916;-72
2022/03/21 00:41:48;;;;;;;;;;;;;;;;;;5054720;28;19908;-71
2022/03/21 00:44:13;;;;;;;;;;;;;;;;;;5052729;28;19905;-71
2022/03/21 00:46:38;;;;;;;;;;;;;;;;;;5037175;28;19908;-71
2022/03/21 00:49:08;;;;;;;;;;;;;;;;;;5053895;28;20250;-72
2022/03/21 00:51:33;;;;;;;;;;;;;;;;;;5054403;28;19919;-72
2022/03/21 00:53:58;;;;;;;;;;;;;;;;;;5054295;28;19909;-72
2022/03/21 00:56:23;;;;;;;;;;;;;;;;;;5051830;28;19904;-72
2022/03/21 00:58:48;;;;;;;;;;;;;;;;;;5054780;28;19999;-72
2022/03/21 01:01:14;;;;;;;;;;;;;;;;;;5052199;28;20362;-72
2022/03/21 01:03:39;;;;;;;;;;;;;;;;;;5036606;28;19909;-72
2022/03/21 01:06:04;;;;;;;;;;;;;;;;;;5054386;28;19909;-72
2022/03/21 01:08:30;;;;;;;;;;;;;;;;;;5054010;28;19912;-72
2022/03/21 01:10:55;;;;;;;;;;;;;;;;;;5054102;28;19955;-72
2022/03/21 01:13:21;;;;;;;;;;;;;;;;;;5054310;28;20252;-72
2022/03/21 01:15:46;;;;;;;;;;;;;;;;;;5054336;28;19994;-72
2022/03/21 01:18:11;;;;;;;;;;;;;;;;;;5053091;28;19909;-72
2022/03/21 01:20:38;;;;;;;;;;;;;;;;;;5053519;28;20139;-72
2022/03/21 01:23:03;;;;;;;;;;;;;;;;;;5054223;28;19909;-72
2022/03/21 01:25:29;;;;;;;;;;;;;;;;;;5054152;28;19916;-72
2022/03/21 01:27:54;;;;;;;;;;;;;;;;;;5036777;28;19939;-73
2022/03/21 01:30:19;;;;;;;;;;;;;;;;;;5053908;28;20294;-72
2022/03/21 01:32:45;;;;;;;;;;;;;;;;;;5036367;28;19913;-72
2022/03/21 01:35:11;;;;;;;;;;;;;;;;;;5036246;28;20365;-71
2022/03/21 01:37:36;;;;;;;;;;;;;;;;;;5016462;28;20261;-71
2022/03/21 01:40:01;;;;;;;;;;;;;;;;;;5016697;28;19911;-71
2022/03/21 01:42:26;;;;;;;;;;;;;;;;;;5034046;28;19909;-72
2022/03/21 01:44:52;;;;;;;;;;;;;;;;;;5016454;28;19910;-72
2022/03/21 01:47:17;;;;;;;;;;;;;;;;;;5016350;28;19909;-72
2022/03/21 01:49:42;;;;;;;;;;;;;;;;;;5033921;28;20269;-71
2022/03/21 01:52:08;;;;;;;;;;;;;;;;;;5034011;28;19917;-72
2022/03/21 01:57:17;;;;;;;;;;;;;;;;;;5033580;28;19909;-71
2022/03/21 01:59:42;;;;;;;;;;;;;;;;;;5035228;28;19912;-72
2022/03/21 02:02:07;;;;;;;;;;;;;;;;;;5020462;28;19913;-72
2022/03/21 02:04:32;;;;;;;;;;;;;;;;;;5037756;28;19909;-70
2022/03/21 02:06:57;;;;;;;;;;;;;;;;;;5020767;28;19915;-70
2022/03/21 02:09:23;;;;;;;;;;;;;;;;;;5037651;28;19920;-70
2022/03/21 02:11:48;;;;;;;;;;;;;;;;;;5037379;28;19913;-70
2022/03/21 02:14:13;;;;;;;;;;;;;;;;;;5036292;28;20338;-70
2022/03/21 02:16:38;;;;;;;;;;;;;;;;;;5037803;28;20350;-70
2022/03/21 02:19:03;;;;;;;;;;;;;;;;;;5041293;28;19955;-70
2022/03/21 02:21:29;;;;;;;;;;;;;;;;;;5057714;28;20245;-70
2022/03/21 02:23:54;;;;;;;;;;;;;;;;;;5057597;28;20297;-70
2022/03/21 02:26:20;;;;;;;;;;;;;;;;;;5051977;28;19915;-69
2022/03/21 02:28:45;;;;;;;;;;;;;;;;;;5036978;28;20277;-70
2022/03/21 02:31:11;;;;;;;;;;;;;;;;;;5037331;28;19913;-70
2022/03/21 02:33:36;;;;;;;;;;;;;;;;;;5035107;28;20368;-70
2022/03/21 02:36:01;;;;;;;;;;;;;;;;;;5019883;28;19909;-70
2022/03/21 02:38:26;;;;;;;;;;;;;;;;;;5037099;28;19909;-70
2022/03/21 02:40:52;;;;;;;;;;;;;;;;;;5037127;28;19909;-70
2022/03/21 02:43:17;;;;;;;;;;;;;;;;;;5037452;28;19909;-70
2022/03/21 02:45:42;;;;;;;;;;;;;;;;;;5036783;28;20420;-70
2022/03/21 02:48:07;;;;;;;;;;;;;;;;;;5036972;28;20330;-71
2022/03/21 02:50:32;;;;;;;;;;;;;;;;;;5019379;28;20337;-70
2022/03/21 02:52:58;;;;;;;;;;;;;;;;;;5036973;28;19917;-71
2022/03/21 02:55:23;;;;;;;;;;;;;;;;;;5036848;28;20370;-70
2022/03/21 02:57:48;;;;;;;;;;;;;;;;;;5037297;28;19909;-70
2022/03/21 03:00:14;;;;;;;;;;;;;;;;;;5037368;28;19917;-71
2022/03/21 03:02:39;;;;;;;;;;;;;;;;;;5037046;28;19913;-70
2022/03/21 03:05:04;;;;;;;;;;;;;;;;;;5036421;28;19913;-70
2022/03/21 03:07:29;;;;;;;;;;;;;;;;;;5038958;28;19995;-71
2022/03/21 03:09:55;;;;;;;;;;;;;;;;;;5056215;28;19920;-70
2022/03/21 03:12:20;;;;;;;;;;;;;;;;;;5053713;28;20035;-70
2022/03/21 03:14:45;;;;;;;;;;;;;;;;;;5056693;28;19912;-70
2022/03/21 03:17:10;;;;;;;;;;;;;;;;;;5056966;28;19913;-70
2022/03/21 03:19:35;;;;;;;;;;;;;;;;;;5056286;28;19944;-70
2022/03/21 03:22:01;;;;;;;;;;;;;;;;;;5056834;28;19905;-70
2022/03/21 03:24:26;;;;;;;;;;;;;;;;;;5053789;28;19959;-70
2022/03/21 03:26:51;;;;;;;;;;;;;;;;;;5038244;28;19913;-70
2022/03/21 03:29:16;;;;;;;;;;;;;;;;;;5056068;28;19912;-70
2022/03/21 03:31:42;;;;;;;;;;;;;;;;;;5056258;28;19916;-70
2022/03/21 03:34:07;;;;;;;;;;;;;;;;;;5056393;28;19904;-70
2022/03/21 03:36:32;;;;;;;;;;;;;;;;;;5055803;28;19955;-70
2022/03/21 03:38:57;;;;;;;;;;;;;;;;;;5055956;28;20452;-70
2022/03/21 03:41:23;;;;;;;;;;;;;;;;;;5055918;28;20329;-70
2022/03/21 03:43:48;;;;;;;;;;;;;;;;;;5038340;28;19905;-70
2022/03/21 03:46:13;;;;;;;;;;;;;;;;;;5038419;28;19909;-70
2022/03/21 03:48:38;;;;;;;;;;;;;;;;;;5037880;28;19909;-70
2022/03/21 03:51:04;;;;;;;;;;;;;;;;;;5037821;28;19920;-70
2022/03/21 03:53:29;;;;;;;;;;;;;;;;;;5055373;28;20238;-71
2022/03/21 03:55:54;;;;;;;;;;;;;;;;;;5055376;28;20357;-70
2022/03/21 03:58:19;;;;;;;;;;;;;;;;;;5055581;28;20261;-70
2022/03/21 04:00:46;;;;;;;;;;;;;;;;;;5038091;28;20357;-70
2022/03/21 04:05:55;;;;;;;;;;;;;;;;;;5044278;28;19913;-70
2022/03/21 04:08:21;;;;;;;;;;;;;;;;;;5035718;28;19920;-70
2022/03/21 04:10:46;;;;;;;;;;;;;;;;;;5018055;28;19916;-70
2022/03/21 04:13:11;;;;;;;;;;;;;;;;;;5035067;28;20324;-70
2022/03/21 04:15:36;;;;;;;;;;;;;;;;;;5035240;28;20412;-70
2022/03/21 04:18:01;;;;;;;;;;;;;;;;;;5035608;28;20004;-70
2022/03/21 04:20:31;;;;;;;;;;;;;;;;;;5035239;28;19996;-70
2022/03/21 04:22:56;;;;;;;;;;;;;;;;;;5034501;28;19909;-70
2022/03/21 04:25:21;;;;;;;;;;;;;;;;;;5035415;28;20008;-71
2022/03/21 04:27:46;;;;;;;;;;;;;;;;;;5017630;28;19909;-71
2022/03/21 04:30:12;;;;;;;;;;;;;;;;;;5018182;28;19913;-71
2022/03/21 04:32:37;;;;;;;;;;;;;;;;;;5032956;28;19915;-70
2022/03/21 04:35:03;;;;;;;;;;;;;;;;;;5034989;28;19905;-71
2022/03/21 04:37:28;;;;;;;;;;;;;;;;;;5034922;28;20316;-71
2022/03/21 04:39:53;;;;;;;;;;;;;;;;;;5001169;28;19916;-71
2022/03/21 04:42:19;;;;;;;;;;;;;;;;;;5017655;28;19905;-71
2022/03/21 04:44:48;;;;;;;;;;;;;;;;;;5039096;28;19908;-71
2022/03/21 04:47:14;;;;;;;;;;;;;;;;;;5054986;28;19966;-71
2022/03/21 04:49:39;;;;;;;;;;;;;;;;;;5054602;28;20301;-71
2022/03/21 04:52:06;;;;;;;;;;;;;;;;;;5054353;28;19913;-71
2022/03/21 04:54:31;;;;;;;;;;;;;;;;;;5054631;28;19904;-71
2022/03/21 04:56:56;;;;;;;;;;;;;;;;;;5054268;28;19909;-71
2022/03/21 04:59:22;;;;;;;;;;;;;;;;;;5054402;28;19909;-71
2022/03/21 05:01:47;;;;;;;;;;;;;;;;;;5054520;28;19956;-70
2022/03/21 05:04:12;;;;;;;;;;;;;;;;;;5036445;28;19936;-70
2022/03/21 05:06:38;;;;;;;;;;;;;;;;;;5036824;28;20265;-71
2022/03/21 05:09:03;;;;;;;;;;;;;;;;;;5036688;28;19921;-71
2022/03/21 05:11:29;;;;;;;;;;;;;;;;;;5054148;28;19912;-71
2022/03/21 05:13:54;;;;;;;;;;;;;;;;;;5054379;28;20249;-71
2022/03/21 05:16:19;;;;;;;;;;;;;;;;;;5036773;28;19912;-71
2022/03/21 05:18:44;;;;;;;;;;;;;;;;;;5054031;28;19938;-71
2022/03/21 05:21:10;;;;;;;;;;;;;;;;;;5053987;28;19909;-72
2022/03/21 05:31:46;;;;;;;;;;;;;;;;;;5051891;28;19917;-71
2022/03/21 05:36:55;;;;;;;;;;;;;;;;;;5056043;28;19917;-71
2022/03/21 05:39:22;;;;;;;;;;;;;;;;;;5059606;28;19955;-71
2022/03/21 05:41:48;;;;;;;;;;;;;;;;;;5060217;28;19959;-71
2022/03/21 05:44:13;;;;;;;;;;;;;;;;;;5058386;28;19908;-71
2022/03/21 05:46:39;;;;;;;;;;;;;;;;;;5058726;28;19915;-70
2022/03/21 05:49:04;;;;;;;;;;;;;;;;;;5040246;28;19913;-71
2022/03/21 05:51:30;;;;;;;;;;;;;;;;;;5037639;28;19971;-71
2022/03/21 05:53:55;;;;;;;;;;;;;;;;;;5023387;28;20400;-71
2022/03/21 05:56:21;;;;;;;;;;;;;;;;;;5040133;28;19908;-71
2022/03/21 05:58:46;;;;;;;;;;;;;;;;;;5057605;28;19905;-71
2022/03/21 06:01:11;;;;;;;;;;;;;;;;;;5057446;28;19909;-71
2022/03/21 06:03:37;;;;;;;;;;;;;;;;;;5057592;28;19931;-74
2022/03/21 06:06:02;;;;;;;;;;;;;;;;;;5057570;28;19908;-72
2022/03/21 06:08:27;;;;;;;;;;;;;;;;;;5057337;28;19913;-70
2022/03/21 06:11:07;;;;;;;;;;;;;;;;;;5039759;28;20246;-69
2022/03/21 06:13:33;;;;;;;;;;;;;;;;;;5057428;28;19977;-69
2022/03/21 06:16:00;;;;;;;;;;;;;;;;;;5057284;28;20253;-70
2022/03/21 06:18:26;;;;;;;;;;;;;;;;;;5057532;28;19917;-69
2022/03/21 06:20:52;;;;;;;;;;;;;;;;;;5057480;28;19999;-70
2022/03/21 06:23:17;;;;;;;;;;;;;;;;;;5057191;28;19954;-70
2022/03/21 06:25:42;;;;;;;;;;;;;;;;;;5015135;28;19954;-70
2022/03/21 06:28:08;;;;;;;;;;;;;;;;;;5041693;28;19913;-70
2022/03/21 06:30:33;;;;;;;;;;;;;;;;;;5039200;28;19919;-70
2022/03/21 06:32:58;;;;;;;;;;;;;;;;;;5057027;28;20267;-69
2022/03/21 06:35:23;;;;;;;;;;;;;;;;;;5039518;28;19908;-72
2022/03/21 06:37:49;;;;;;;;;;;;;;;;;;5056776;28;19909;-70
2022/03/21 06:40:14;;;;;;;;;;;;;;;;;;5057239;28;20392;-69
2022/03/21 06:42:39;;;;;;;;;;;;;;;;;;5056612;28;19915;-69
2022/03/21 06:45:05;;;;;;;;;;;;;;;;;;5057444;28;19908;-70
2022/03/21 06:47:30;;;;;;;;;;;;;;;;;;5053998;28;19909;-68
2022/03/21 06:49:55;;;;;;;;;;;;;;;;;;5036834;28;19921;-70
2022/03/21 06:52:21;;;;;;;;;;;;;;;;;;5036840;28;19916;-71
2022/03/21 06:54:46;;;;;;;;;;;;;;;;;;5019649;28;20376;-70
2022/03/21 06:57:11;;;;;;;;;;;;;;;;;;5036860;28;19909;-68
2022/03/21 06:59:37;;;;;;;;;;;;;;;;;;5036610;28;19909;-69
2022/03/21 07:02:02;;;;;;;;;;;;;;;;;;5036388;28;20314;-69
2022/03/21 07:04:27;;;;;;;;;;;;;;;;;;5036621;28;19952;-70
2022/03/21 07:06:53;;;;;;;;;;;;;;;;;;5036616;28;19909;-69
2022/03/21 07:09:18;;;;;;;;;;;;;;;;;;5036736;28;19909;-70
2022/03/21 07:11:43;;;;;;;;;;;;;;;;;;5036405;28;19920;-60
2022/03/21 07:14:08;;;;;;;;;;;;;;;;;;5036014;28;19909;-59
2022/03/21 07:16:34;;;;;;;;;;;;;;;;;;5018761;28;19935;-68
2022/03/21 07:18:59;;;;;;;;;;;;;;;;;;5036246;28;19909;-69
2022/03/21 07:21:25;;;;;;;;;;;;;;;;;;5036015;28;20024;-69
2022/03/21 07:23:50;;;;;;;;;;;;;;;;;;5035903;28;20285;-69
2022/03/21 07:26:15;;;;;;;;;;;;;;;;;;5018768;28;19913;-68
2022/03/21 07:28:40;;;;;;;;;;;;;;;;;;5036009;28;19913;-69
2022/03/21 07:31:09;;;;;;;;;;;;;;;;;;5035962;28;20004;-68
2022/03/21 07:33:34;;;;;;;;;;;;;;;;;;5036364;28;19909;-69
2022/03/21 07:36:00;;;;;;;;;;;;;;;;;;5020675;28;20472;-70
2022/03/21 07:38:25;;;;;;;;;;;;;;;;;;5035584;28;20255;-69
2022/03/21 07:40:50;;;;;;;;;;;;;;;;;;5017923;28;20358;-69
2022/03/21 07:43:17;;;;;;;;;;;;;;;;;;5018336;28;19913;-69
2022/03/21 07:48:27;;;;;;;;;;;;;;;;;;5028446;28;20323;-70
2022/03/21 07:50:52;;;;;;;;;;;;;;;;;;5017685;28;19913;-69
2022/03/21 07:53:17;;;;;;;;;;;;;;;;;;5035581;28;19909;-68
2022/03/21 07:55:43;;;;;;;;;;;;;;;;;;5035038;28;20011;-69
2022/03/21 07:58:08;;;;;;;;;;;;;;;;;;5035141;28;19952;-69
2022/03/21 08:00:33;;;;;;;;;;;;;;;;;;5035380;28;20003;-68
2022/03/21 08:02:59;;;;;;;;;;;;;;;;;;5035486;28;19909;-68
2022/03/21 08:05:24;;;;;;;;;;;;;;;;;;5017455;28;19905;-68
2022/03/21 08:07:51;;;;;;;;;;;;;;;;;;5035260;28;19909;-68
2022/03/21 08:10:18;;;;;;;;;;;;;;;;;;5035086;28;19920;-70
2022/03/21 08:12:46;;;;;;;;;;;;;;;;;;5034731;28;19916;-69
2022/03/21 08:15:12;;;;;;;;;;;;;;;;;;5021459;28;19906;-70
2022/03/21 08:17:37;;;;;;;;;;;;;;;;;;5045634;28;19913;-68
2022/03/21 08:20:02;;;;;;;;;;;;;;;;;;5035109;28;19916;-67
2022/03/21 08:22:28;;;;;;;;;;;;;;;;;;5054860;28;19908;-70
2022/03/21 08:24:53;;;;;;;;;;;;;;;;;;5037604;28;19909;-67
2022/03/21 08:27:18;;;;;;;;;;;;;;;;;;5021236;28;20413;-67
2022/03/21 08:29:44;;;;;;;;;;;;;;;;;;5029446;28;19920;-69
2022/03/21 08:32:09;;;;;;;;;;;;;;;;;;5054521;28;20023;-69
2022/03/21 08:34:34;;;;;;;;;;;;;;;;;;5052166;28;20202;-70
2022/03/21 08:36:59;;;;;;;;;;;;;;;;;;5054467;28;19970;-69
2022/03/21 08:39:25;;;;;;;;;;;;;;;;;;5053355;28;19909;-68
2022/03/21 08:41:50;;;;;;;;;;;;;;;;;;5053327;28;19904;-68
2022/03/21 08:44:17;;;;;;;;;;;;;;;;;;5054282;28;19912;-68
2022/03/21 08:46:42;;;;;;;;;;;;;;;;;;5036447;28;20308;-70
2022/03/21 08:51:51;;;;;;;;;;;;;;;;;;5052229;28;20365;-68
2022/03/21 08:54:16;;;;;;;;;;;;;;;;;;5054787;28;20008;-69
2022/03/21 08:56:42;;;;;;;;;;;;;;;;;;5054389;28;19909;-68
2022/03/21 08:59:07;;;;;;;;;;;;;;;;;;5053954;28;20054;-69
2022/03/21 09:01:32;;;;;;;;;;;;;;;;;;5036536;28;19908;-69
2022/03/21 09:03:58;;;;;;;;;;;;;;;;;;5054501;28;19912;-69
2022/03/21 09:06:23;;;;;;;;;;;;;;;;;;5054173;28;19908;-69
2022/03/21 09:08:48;;;;;;;;;;;;;;;;;;5053950;28;20019;-69
2022/03/21 09:11:14;;;;;;;;;;;;;;;;;;5052231;28;19913;-69
2022/03/21 09:13:40;;;;;;;;;;;;;;;;;;5054205;28;19909;-69
2022/03/21 09:16:05;;;;;;;;;;;;;;;;;;5033668;28;19967;-69
2022/03/21 09:18:30;;;;;;;;;;;;;;;;;;5035861;28;19909;-69
2022/03/21 09:20:56;;;;;;;;;;;;;;;;;;5053720;28;19913;-68
2022/03/21 09:23:21;;;;;;;;;;;;;;;;;;5053969;28;20265;-69
2022/03/21 09:25:46;;;;;;;;;;;;;;;;;;5036615;28;19996;-69
2022/03/21 09:28:12;;;;;;;;;;;;;;;;;;5054138;28;19915;-69
2022/03/21 09:30:39;;;;;;;;;;;;;;;;;;5043234;28;19932;-71
2022/03/21 09:33:04;;;;;;;;;;;;;;;;;;5034190;28;19912;-69
2022/03/21 09:35:29;;;;;;;;;;;;;;;;;;5036110;28;19910;-68
2022/03/21 09:37:55;;;;;;;;;;;;;;;;;;5035343;28;19953;-70
2022/03/21 09:40:20;;;;;;;;;;;;;;;;;;5034053;28;20231;-69
2022/03/21 09:42:45;;;;;;;;;;;;;;;;;;5033571;28;20328;-70
2022/03/21 09:45:10;;;;;;;;;;;;;;;;;;5033537;28;19916;-69
2022/03/21 09:50:20;;;;;;;;;;;;;;;;;;5033743;28;20008;-69
2022/03/21 09:52:45;;;;;;;;;;;;;;;;;;5015762;28;19993;-68
2022/03/21 09:55:10;;;;;;;;;;;;;;;;;;5016249;28;19905;-70
2022/03/21 09:57:35;;;;;;;;;;;;;;;;;;5033623;28;19975;-69
2022/03/21 10:00:01;;;;;;;;;;;;;;;;;;5032622;28;19909;-69
2022/03/21 10:02:26;;;;;;;;;;;;;;;;;;5016271;28;19920;-68
2022/03/21 10:04:52;;;;;;;;;;;;;;;;;;5033871;28;20276;-68
2022/03/21 10:07:18;;;;;;;;;;;;;;;;;;5033245;28;20322;-69
2022/03/21 10:09:43;;;;;;;;;;;;;;;;;;5032198;28;20001;-68
2022/03/21 10:12:08;;;;;;;;;;;;;;;;;;5033349;28;20383;-70
2022/03/21 10:14:33;;;;;;;;;;;;;;;;;;5033524;28;20016;-70
2022/03/21 10:16:59;;;;;;;;;;;;;;;;;;5034054;28;19913;-69
2022/03/21 10:19:24;;;;;;;;;;;;;;;;;;5033490;28;19905;-68
2022/03/21 10:21:49;;;;;;;;;;;;;;;;;;5041332;28;20326;-69
2022/03/21 10:24:14;;;;;;;;;;;;;;;;;;5044567;28;19921;-70
2022/03/21 10:26:39;;;;;;;;;;;;;;;;;;5037232;28;19909;-70
2022/03/21 10:29:05;;;;;;;;;;;;;;;;;;5034875;28;20255;-70
2022/03/21 10:31:30;;;;;;;;;;;;;;;;;;5037325;28;20219;-71
2022/03/21 10:33:55;;;;;;;;;;;;;;;;;;5037021;28;19909;-70
2022/03/21 10:36:20;;;;;;;;;;;;;;;;;;5035725;28;19936;-69
2022/03/21 10:38:46;;;;;;;;;;;;;;;;;;5036744;28;20023;-69
2022/03/21 10:41:11;;;;;;;;;;;;;;;;;;5037389;28;19916;-68
2022/03/21 10:43:36;;;;;;;;;;;;;;;;;;5036964;28;19971;-69
2022/03/21 10:46:02;;;;;;;;;;;;;;;;;;5037137;28;19909;-68
2022/03/21 10:48:30;;;;;;;;;;;;;;;;;;5036665;28;19959;-69
2022/03/21 10:50:55;;;;;;;;;;;;;;;;;;5035715;28;19940;-68
2022/03/21 10:53:21;;;;;;;;;;;;;;;;;;5034215;28;19944;-69
2022/03/21 10:55:46;;;;;;;;;;;;;;;;;;5036380;28;19964;-68
2022/03/21 10:58:12;;;;;;;;;;;;;;;;;;5018753;28;19916;-68
2022/03/21 11:00:37;;;;;;;;;;;;;;;;;;5036159;28;19909;-69
2022/03/21 11:03:05;;;;;;;;;;;;;;;;;;5036811;28;19917;-69
2022/03/21 11:05:31;;;;;;;;;;;;;;;;;;5018578;28;19909;-70
2022/03/21 11:07:56;;;;;;;;;;;;;;;;;;5036727;28;19920;-69
2022/03/21 11:10:21;;;;;;;;;;;;;;;;;;5036663;28;19917;-69
2022/03/21 11:12:46;;;;;;;;;;;;;;;;;;5018724;28;19919;-69
2022/03/21 11:15:12;;;;;;;;;;;;;;;;;;5036675;28;19917;-69
2022/03/21 11:17:37;;;;;;;;;;;;;;;;;;5036521;28;19913;-70
2022/03/21 11:20:02;;;;;;;;;;;;;;;;;;5018760;28;19909;-72
2022/03/21 11:22:27;;;;;;;;;;;;;;;;;;5036480;28;19909;-70
2022/03/21 11:24:53;;;;;;;;;;;;;;;;;;5035961;28;19975;-69
2022/03/21 11:27:18;;;;;;;;;;;;;;;;;;5035940;28;19916;-70
2022/03/21 11:29:43;;;;;;;;;;;;;;;;;;5036077;28;19909;-69
2022/03/21 11:32:08;;;;;;;;;;;;;;;;;;5018024;28;20310;-68
2022/03/21 11:34:33;;;;;;;;;;;;;;;;;;5035860;28;19905;-73
2022/03/21 11:36:59;;;;;;;;;;;;;;;;;;5037148;28;19917;-70
2022/03/21 11:39:24;;;;;;;;;;;;;;;;;;5038045;28;19920;-69
2022/03/21 11:41:49;;;;;;;;;;;;;;;;;;5035787;28;19952;-71
2022/03/21 11:44:14;;;;;;;;;;;;;;;;;;5036284;28;19909;-69
2022/03/21 11:46:40;;;;;;;;;;;;;;;;;;5036334;28;19913;-69
2022/03/21 11:49:05;;;;;;;;;;;;;;;;;;5035295;28;19917;-69
2022/03/21 11:51:30;;;;;;;;;;;;;;;;;;5035952;28;19952;-72
2022/03/21 11:53:56;;;;;;;;;;;;;;;;;;5036593;28;19963;-68
2022/03/21 11:56:21;;;;;;;;;;;;;;;;;;5035724;28;19909;-70
2022/03/21 11:58:46;;;;;;;;;;;;;;;;;;5035425;28;19920;-70
2022/03/21 12:01:12;;;;;;;;;;;;;;;;;;5017561;28;19992;-68
2022/03/21 12:03:38;;;;;;;;;;;;;;;;;;5032838;28;19909;-69
2022/03/21 12:06:03;;;;;;;;;;;;;;;;;;5035624;28;19909;-69
2022/03/21 12:08:28;;;;;;;;;;;;;;;;;;5017250;28;19913;-69
2022/03/21 12:10:54;;;;;;;;;;;;;;;;;;5001302;28;20368;-69
2022/03/21 12:13:19;;;;;;;;;;;;;;;;;;5035129;28;19909;-68
2022/03/21 12:15:44;;;;;;;;;;;;;;;;;;5034877;28;19940;-69
2022/03/21 12:18:10;;;;;;;;;;;;;;;;;;5034337;28;19909;-69
2022/03/21 12:20:35;;;;;;;;;;;;;;;;;;5017402;28;19971;-69
2022/03/21 12:23:00;;;;;;;;;;;;;;;;;;5034895;28;20191;-70
2022/03/21 12:25:25;;;;;;;;;;;;;;;;;;5033584;28;19905;-71
2022/03/21 12:27:55;;;;;;;;;;;;;;;;;;5017047;28;19987;-72
2022/03/21 12:30:27;;;;;;;;;;;;;;;;;;5034905;28;19917;-69
2022/03/21 12:32:53;;;;;;;;;;;;;;;;;;5017566;28;19958;-68
2022/03/21 12:35:18;;;;;;;;;;;;;;;;;;5034636;28;19913;-69
2022/03/21 12:37:44;;;;;;;;;;;;;;;;;;5034880;28;19996;-69
2022/03/21 12:40:09;;;;;;;;;;;;;;;;;;5035001;28;19936;-69
2022/03/21 12:42:35;;;;;;;;;;;;;;;;;;5034745;28;19912;-69
2022/03/21 12:45:00;;;;;;;;;;;;;;;;;;5034370;28;19909;-69
2022/03/21 12:47:25;;;;;;;;;;;;;;;;;;5034112;28;19920;-69
2022/03/21 12:49:51;;;;;;;;;;;;;;;;;;5034248;28;19913;-69
2022/03/21 12:52:16;;;;;;;;;;;;;;;;;;5035111;28;20276;-68
2022/03/21 12:54:42;;;;;;;;;;;;;;;;;;5034322;28;20311;-69
2022/03/21 12:57:07;;;;;;;;;;;;;;;;;;5034345;28;20319;-69
2022/03/21 12:59:32;;;;;;;;;;;;;;;;;;5016598;28;20334;-69
2022/03/21 13:01:57;;;;;;;;;;;;;;;;;;5034085;28;20364;-69
2022/03/21 13:12:35;;;;;;;;;;;;;;;;;;5016439;28;19913;-67
2022/03/21 13:15:01;;;;;;;;;;;;;;;;;;5034362;28;19916;-66
2022/03/21 13:17:26;;;;;;;;;;;;;;;;;;5017207;28;19933;-70
2022/03/21 13:19:51;;;;;;;;;;;;;;;;;;5033939;28;20243;-68
2022/03/21 13:22:17;;;;;;;;;;;;;;;;;;5031540;28;19917;-68
2022/03/21 13:24:42;;;;;;;;;;;;;;;;;;5034300;28;19915;-68
2022/03/21 13:27:08;;;;;;;;;;;;;;;;;;5033936;28;19948;-69
2022/03/21 13:29:33;;;;;;;;;;;;;;;;;;5033566;28;19913;-68
2022/03/21 13:31:59;;;;;;;;;;;;;;;;;;5033952;28;20036;-68
2022/03/21 13:34:24;;;;;;;;;;;;;;;;;;5033561;28;19909;-68
2022/03/21 13:36:49;;;;;;;;;;;;;;;;;;5033548;28;20353;-68
2022/03/21 13:39:22;;;;;;;;;;;;;;;;;;5033690;28;20066;-68
2022/03/21 13:41:48;;;;;;;;;;;;;;;;;;5034582;28;19959;-67
2022/03/21 13:44:13;;;;;;;;;;;;;;;;;;5034749;28;19952;-68
2022/03/21 13:46:38;;;;;;;;;;;;;;;;;;5033551;28;19909;-68
2022/03/21 13:49:03;;;;;;;;;;;;;;;;;;5033661;28;19909;-67
2022/03/21 13:51:29;;;;;;;;;;;;;;;;;;5033685;28;20010;-69
2022/03/21 13:53:56;;;;;;;;;;;;;;;;;;5033972;28;19955;-68
2022/03/21 13:56:21;;;;;;;;;;;;;;;;;;5036532;28;20373;-69
2022/03/21 13:58:46;;;;;;;;;;;;;;;;;;5038051;28;20462;-69
2022/03/21 14:01:11;;;;;;;;;;;;;;;;;;5037279;28;19916;-69
2022/03/21 14:03:36;;;;;;;;;;;;;;;;;;5037402;28;20000;-68
2022/03/21 14:06:02;;;;;;;;;;;;;;;;;;5037186;28;19909;-68
2022/03/21 14:08:27;;;;;;;;;;;;;;;;;;5037124;28;19913;-69
2022/03/21 14:10:52;;;;;;;;;;;;;;;;;;5037387;28;20342;-70
2022/03/21 14:13:19;;;;;;;;;;;;;;;;;;5037028;28;20301;-69
2022/03/21 14:15:44;;;;;;;;;;;;;;;;;;5037126;28;19920;-69
2022/03/21 14:18:10;;;;;;;;;;;;;;;;;;5037665;28;19909;-69
2022/03/21 14:20:35;;;;;;;;;;;;;;;;;;5036959;28;19909;-69
2022/03/21 14:23:01;;;;;;;;;;;;;;;;;;5054065;28;19913;-69
2022/03/21 14:28:10;;;;;;;;;;;;;;;;;;5057456;28;19908;-69
2022/03/21 14:30:35;;;;;;;;;;;;;;;;;;5056927;28;20273;-69
2022/03/21 14:33:00;;;;;;;;;;;;;;;;;;5056964;28;19948;-69
2022/03/21 14:35:26;;;;;;;;;;;;;;;;;;5056643;28;19955;-69
2022/03/21 14:37:51;;;;;;;;;;;;;;;;;;5057086;28;19916;-69
2022/03/21 14:40:17;;;;;;;;;;;;;;;;;;5057009;28;19905;-68
2022/03/21 14:42:42;;;;;;;;;;;;;;;;;;5057563;28;20058;-69
2022/03/21 14:45:07;;;;;;;;;;;;;;;;;;5056949;28;20015;-69
2022/03/21 14:47:32;;;;;;;;;;;;;;;;;;5052900;28;20003;-69
2022/03/21 14:49:58;;;;;;;;;;;;;;;;;;5057060;28;19916;-69
2022/03/21 14:52:26;;;;;;;;;;;;;;;;;;5056474;28;19912;-69
2022/03/21 14:54:51;;;;;;;;;;;;;;;;;;5057333;28;19927;-69
2022/03/21 14:57:16;;;;;;;;;;;;;;;;;;5057330;28;20245;-69
2022/03/21 14:59:41;;;;;;;;;;;;;;;;;;5056866;28;20342;-70
2022/03/21 15:02:06;;;;;;;;;;;;;;;;;;5056904;28;19913;-69
2022/03/21 15:04:32;;;;;;;;;;;;;;;;;;5056550;28;19963;-69
2022/03/21 15:06:57;;;;;;;;;;;;;;;;;;5055502;28;19913;-69
2022/03/21 15:09:22;;;;;;;;;;;;;;;;;;5056471;28;19958;-70
2022/03/21 15:11:50;;;;;;;;;;;;;;;;;;5056506;28;19917;-70
2022/03/21 15:14:15;;;;;;;;;;;;;;;;;;5056495;28;19912;-70
2022/03/21 15:16:42;;;;;;;;;;;;;;;;;;5038631;28;19969;-70
2022/03/21 15:19:08;;;;;;;;;;;;;;;;;;5056352;28;19909;-70
2022/03/21 15:21:33;;;;;;;;;;;;;;;;;;5056275;28;19916;-68
2022/03/21 15:23:58;;;;;;;;;;;;;;;;;;5056232;28;20010;-69
2022/03/21 15:26:24;;;;;;;;;;;;;;;;;;5038712;28;20301;-69
2022/03/21 15:28:49;;;;;;;;;;;;;;;;;;5056312;28;20296;-69
2022/03/21 15:31:15;;;;;;;;;;;;;;;;;;5035896;28;19919;-69
2022/03/21 15:33:40;;;;;;;;;;;;;;;;;;5053628;28;19987;-69
2022/03/21 15:41:42;;;;;;;;;;;;;;;;;;5056297;28;19975;-68
2022/03/21 15:44:07;;;;;;;;;;;;;;;;;;5057234;28;19916;-68
2022/03/21 15:46:32;;;;;;;;;;;;;;;;;;5038240;28;19908;-69
2022/03/21 15:48:58;;;;;;;;;;;;;;;;;;5055359;28;19959;-69
2022/03/21 15:51:23;;;;;;;;;;;;;;;;;;5038013;28;20036;-70
2022/03/21 15:53:50;;;;;;;;;;;;;;;;;;5038584;28;19960;-70
2022/03/21 15:56:18;;;;;;;;;;;;;;;;;;5055553;28;20364;-69
2022/03/21 15:58:43;;;;;;;;;;;;;;;;;;5037765;28;20375;-69
2022/03/21 16:01:08;;;;;;;;;;;;;;;;;;5037244;28;19948;-68
2022/03/21 16:03:33;;;;;;;;;;;;;;;;;;5037826;28;19943;-69
2022/03/21 16:06:00;;;;;;;;;;;;;;;;;;5052972;28;19988;-70
2022/03/21 16:08:25;;;;;;;;;;;;;;;;;;5035308;28;20039;-70
2022/03/21 16:10:51;;;;;;;;;;;;;;;;;;5035640;28;19916;-69
2022/03/21 16:13:16;;;;;;;;;;;;;;;;;;5017654;28;19913;-69
2022/03/21 16:15:41;;;;;;;;;;;;;;;;;;5035597;28;19913;-69
2022/03/21 16:18:09;;;;;;;;;;;;;;;;;;5035235;28;19920;-68
2022/03/21 16:20:34;;;;;;;;;;;;;;;;;;5035831;28;19963;-69
2022/03/21 16:23:00;;;;;;;;;;;;;;;;;;5035215;28;20257;-68
2022/03/21 16:25:25;;;;;;;;;;;;;;;;;;5017962;28;19996;-70
2022/03/21 16:27:50;;;;;;;;;;;;;;;;;;5034878;28;19917;-70
2022/03/21 16:30:16;;;;;;;;;;;;;;;;;;5035241;28;19917;-71
2022/03/21 16:32:41;;;;;;;;;;;;;;;;;;5033074;28;19913;-69
2022/03/21 16:35:07;;;;;;;;;;;;;;;;;;5054590;28;19913;-69
2022/03/21 16:37:33;;;;;;;;;;;;;;;;;;5054279;28;19915;-70
2022/03/21 16:39:59;;;;;;;;;;;;;;;;;;5054685;28;20309;-70
2022/03/21 16:42:24;;;;;;;;;;;;;;;;;;5055095;28;20349;-72
2022/03/21 16:44:51;;;;;;;;;;;;;;;;;;5054868;28;19912;-71
2022/03/21 16:47:16;;;;;;;;;;;;;;;;;;5036542;28;19909;-68
2022/03/21 16:49:43;;;;;;;;;;;;;;;;;;5054364;28;19920;-71
2022/03/21 16:52:12;;;;;;;;;;;;;;;;;;5054279;28;19913;-68
2022/03/21 16:54:37;;;;;;;;;;;;;;;;;;5036662;28;19947;-68
2022/03/21 16:57:03;;;;;;;;;;;;;;;;;;5024817;28;19909;-69
2022/03/21 16:59:28;;;;;;;;;;;;;;;;;;5054750;28;20064;-70
2022/03/21 17:01:53;;;;;;;;;;;;;;;;;;5051112;28;19908;-70
2022/03/21 17:04:19;;;;;;;;;;;;;;;;;;5017236;28;19909;-70
2022/03/21 17:06:45;;;;;;;;;;;;;;;;;;5016537;28;19944;-70
2022/03/21 17:09:10;;;;;;;;;;;;;;;;;;5000649;28;19920;-70
2022/03/21 17:11:35;;;;;;;;;;;;;;;;;;5024625;28;19920;-70
2022/03/21 17:14:00;;;;;;;;;;;;;;;;;;5054248;28;19909;-70